map of SBNT home
SBNT - Airport
Location
City:  Natal, Rio Grande do Norte, Brazil
Near (Alt.):Parnamirim
Name:Natal AFB
ICAO:SBNT

Details
Type:Airport (Aerodrome, Airfield)
Use:Public/Civil, Military
Latitude:5°54'30"S (-5.908332)
Longitude:35°14'57"W (-35.249166)
Elevation:167 ft (51 m)
Variation:21.35°W (WMM2015 magnetic declination)
0.04° annual change
Runways:3
Longest:8530 × 148 ft (2600 × 45 m), paved

Time
Time Zone:UTC-3
Local Time:

Weather
METAR:SBNT 191300Z 12018KT 9999 SCT030 SCT080 31/21 Q1013
TAF:SBNT 191000Z 1912/2012 14020KT 9999 SCT025 TX32/1914Z TN25/2008Z
BECMG 1920/1922 14012KT
BECMG 2004/2005 17006KT
RMK PEU

Related Locations
Nearby:
Farthest:ULI: 12000 mi / 19311 km
Falalop Island [Ulithi Civil Airfield], Ulithi Atoll, YAP, FM

Find:

   beyond  
but within

Other Information
Maps:
NOTAMs:
Links:
Sources:

  
  • flag of Brazil
  • flag of Rio Grande do Norte
  • flag of Natal
  

Sectional Chart

Flight Planning
at skyvector.com

Satellite Image

Google Maps Satellite view

 

Copyright © 2004-2018 Karl L. Swartz. All rights reserved.
The Great Circle Mapper name and logo are trademarks of the Great Circle Mapper.
All other trademarks mentioned herein belong to their respective owners.
Please see credits for attibutions and further copyright information.

  Follow gcmap on Facebook Follow gcmap on Twitter Follow gcmap on Google+ GCmap on LinkedIn

hCard Microformat

Geo Microformat